Station: Mount Bundey South (Defence)

  Atmospheric Gas Attenuation - ITU Rec 676-11   --------------- db/100km ---------------
Date Time Temp RH % AH g/m3 Dew Point Wind Direction Speed kph Gust kph Barometer mB Rainfall Since 9am 24GHz 47GHz 76GHz 122GHz 134GHz 241GHz
07 07:20 17.8 87 13.2 15.7 0 0 1013.1 0 29.2 32.4 56.8 149.9 155.8 539.4
07 07:10 17.7 87 13.13 15.6 0 0 1013.1 0 29.1 32.3 56.6 149.2 154.9 536.5
07 07:00 17.7 86 12.97 15.3 0 0 1013.8 0 28.7 32.1 55.9 147.4 152.7 528.7
07 06:50 17.7 86 12.97 15.3 0 0 1013.1 0 28.7 32.0 55.9 147.4 152.6 528.4
07 06:40 17.9 85 12.98 15.3 0 0 1013.1 0 28.7 32.0 55.8 147.1 152.4 527.6
07 06:30 18 86 13.21 15.6 0 0 1013.5 0 29.2 32.4 56.7 149.7 155.5 538.7
07 06:20 18.1 87 13.44 15.9 0 0 1013.1 0 29.7 32.7 57.7 152.1 158.6 549.5
07 06:10 18.1 86 13.29 15.7 0 0 1013.1 0 29.4 32.4 57.0 150.4 156.4 541.8
07 06:00 18.2 83 12.9 15.3 0 0 1013.2 0 28.5 31.7 55.2 145.6 150.6 521.5
07 05:50 18.4 83 13.05 15.4 0 0 1013.1 0 28.8 31.9 55.7 147.0 152.4 527.6
07 05:40 18.8 83 13.37 15.8 0 0 1013.1 0 29.5 32.3 56.8 149.9 156.2 540.9
07 05:30 19.2 81 13.36 15.9 0 0 1012.9 0 29.4 32.2 56.5 149.0 155.2 537.5
07 05:20 19.4 80 13.35 15.8 0 0 1013.1 0 29.4 32.1 56.3 148.5 154.6 535.7
07 05:10 19.7 81 13.75 16.3 0 0 1013.1 0 30.2 32.7 57.8 152.6 159.8 553.6
07 04:50 19 83 13.52 16 0 0 1013.1 0 29.8 32.5 57.3 151.3 157.9 547.1
07 04:40 19.2 83 13.68 16.2 0 0 1013.1 0 30.1 32.7 57.9 152.8 159.8 553.7
07 04:30 19.3 83 13.77 16.3 0 0 1012.6 0 30.3 32.8 58.2 153.6 160.8 557.3
07 04:20 19.3 83 13.77 16.3 0 0 1013.1 0 30.3 32.8 58.2 153.7 160.9 557.6
07 04:10 19.2 83 13.68 16.2 0 0 1013.1 0 30.1 32.7 57.9 152.8 159.8 553.7
07 04:00 19.2 82 13.52 16.1 0 0 1012.4 0 29.8 32.4 57.2 150.8 157.4 545.4
07 03:50 19.1 82 13.44 15.9 0 0 1013.1 0 29.6 32.3 56.9 150.2 156.6 542.3
07 03:40 19.3 81 13.43 15.9 0 0 1013.1 0 29.6 32.2 56.7 149.7 156.0 540.4
07 03:30 19.4 81 13.51 16.1 2 6 1012.3 0 29.8 32.3 57.0 150.3 156.8 543.4
07 03:20 19.4 78 13.01 15.6 2 4 1013.1 0 28.7 31.5 54.8 144.6 149.8 518.8
07 03:10 19.8 76 12.98 15.4 0 0 1013.1 0 28.6 31.3 54.4 143.5 148.6 514.7
07 03:00 20.5 74 13.17 15.7 0 0 1012.3 0 28.9 31.3 54.7 144.3 149.8 519.0
07 02:50 21 75 13.74 16.4 0 2 1013.1 0 30.1 32.2 56.8 150.0 156.9 543.9
07 02:40 21 73 13.37 16.1 4 4 1013.1 0 29.3 31.5 55.2 145.7 151.7 525.7
07 02:30 21.3 73 13.61 16.3 2 4 1012.4 0 29.8 31.8 56.0 147.8 154.4 535.1
07 02:20 21.8 73 14 16.7 4 4 1013.1 0 30.6 32.3 57.4 151.4 158.9 551.0
07 02:10 21.8 72 13.81 16.5 4 6 1013.1 0 30.2 32.0 56.5 149.2 156.3 541.7
07 02:00 21.9 72 13.89 16.6 4 6 1012.4 0 30.4 32.1 56.8 149.8 157.1 544.6
07 01:50 22.3 70 13.82 16.7 2 4 1013.1 0 30.2 31.8 56.2 148.4 155.4 538.7
07 01:40 22 72 13.97 16.7 7 9 1013.1 0 30.5 32.2 57.1 150.7 158.1 548.1
07 01:30 22.2 71 13.94 16.7 4 7 1012.7 0 30.5 32.0 56.8 149.9 157.2 545.1
07 01:20 22.3 70 13.82 16.7 6 6 1013.1 0 30.2 31.8 56.2 148.4 155.4 538.7
07 01:10 22.3 70 13.82 16.7 6 6 1013.1 0 30.2 31.8 56.2 148.4 155.4 538.7
07 01:00 22.3 70 13.82 16.6 4 6 1012.8 0 30.2 31.8 56.2 148.3 155.3 538.6
07 00:50 22.6 68 13.66 16.4 4 4 1013.1 0 29.8 31.4 55.3 146.0 152.6 528.9
07 00:40 22.9 67 13.69 16.4 4 4 1013.1 0 29.9 31.4 55.2 145.8 152.4 528.3
07 00:30 23.2 67 13.93 16.7 4 7 1013 0 30.4 31.7 56.0 147.9 155.1 537.7
07 00:20 23.3 66 13.8 16.6 4 6 1013.1 0 30.1 31.4 55.4 146.3 153.1 530.8
07 00:10 23.4 65 13.67 16.6 4 6 1013.1 0 29.8 31.2 54.8 144.6 151.1 523.9
07 00:00 23.6 65 13.82 16.6 4 6 1013.1 0 30.1 31.3 55.3 145.9 152.8 529.7
06 23:50 23.8 65 13.98 16.8 6 6 1013.1 0 30.4 31.5 55.8 147.3 154.6 536.0
06 23:40 24 63 13.71 16.7 6 7 1013.1 0 29.8 31.0 54.6 144.0 150.5 521.8
06 23:30 24.3 63 13.94 16.8 6 9 1013.3 0 30.3 31.3 55.3 146.0 153.0 530.8
06 23:20 24.5 61 13.65 16.7 6 7 1013.1 0 29.7 30.7 54.0 142.4 148.7 515.7
06 23:10 24.8 60 13.66 16.5 4 6 1013.1 0 29.7 30.6 53.8 142.0 148.3 514.2
06 23:00 25.1 59 13.66 16.5 7 13 1013.3 0 29.7 30.5 53.6 141.4 147.7 512.3
06 22:50 25.2 59 13.73 16.6 7 7 1013.1 0 29.8 30.6 53.8 142.0 148.4 514.8
06 22:40 25.4 59 13.89 16.8 6 7 1013.1 0 30.1 30.8 54.3 143.4 150.2 520.9
06 22:30 25.6 59 14.05 17 6 13 1013.1 0 30.4 31.0 54.8 144.7 151.9 527.1
06 22:20 25.9 58 14.04 17 7 7 1013.1 0 30.4 30.9 54.6 144.1 151.2 524.6
06 22:10 26.1 57 13.95 16.9 6 7 1013.1 0 30.2 30.7 54.1 142.7 149.6 519.1
06 22:00 26.2 57 14.03 17 7 13 1013 0 30.4 30.8 54.3 143.4 150.5 522.1
06 21:50 26.5 56 14.02 17 9 11 1013.1 0 30.3 30.6 54.1 142.8 149.8 519.7
06 21:40 26.7 55 13.92 16.9 9 11 1013.1 0 30.1 30.4 53.6 141.3 148.1 513.7
06 21:30 27 55 14.16 17.2 9 17 1012.6 0 30.6 30.7 54.3 143.3 150.6 522.6
06 21:20 27.3 53 13.87 17.1 7 9 1013.1 0 29.9 30.1 53.0 139.7 146.3 507.6
06 21:10 27.6 52 13.83 17.1 6 11 1013.1 0 29.8 30.0 52.6 138.8 145.2 503.8
06 21:00 27.7 53 14.18 17.5 9 17 1012.3 0 30.6 30.5 53.9 142.2 149.5 518.7
06 20:50 27.6 58 15.43 18.8 6 7 1013.1 0 33.2 32.6 59.1 156.0 166.4 577.7
06 20:40 27.8 57 15.33 18.7 4 6 1013.1 0 33.0 32.3 58.5 154.5 164.6 571.5
06 20:30 28.1 58 15.86 19.1 6 11 1011.9 0 34.0 33.1 60.4 159.6 171.0 593.8
06 20:20 28.3 56 15.48 18.9 7 7 1013.1 0 33.2 32.4 58.7 155.2 165.5 574.9
06 20:10 28.6 55 15.46 18.9 6 9 1013.1 0 33.2 32.2 58.4 154.4 164.6 571.8
06 20:00 28.8 55 15.63 18.9 7 13 1011.4 0 33.5 32.4 58.9 155.6 166.3 577.5
06 19:50 29 53 15.23 18.7 9 11 1013.1 0 32.6 31.7 57.2 151.1 160.7 558.2
06 19:40 29.2 53 15.39 18.9 11 13 1013.1 0 33.0 31.9 57.7 152.4 162.4 564.2
06 19:30 29.4 53 15.56 18.8 4 9 1010.9 0 33.3 32.0 58.1 153.6 164.0 569.7
06 19:20 29.5 52 15.35 18.6 6 9 1013.1 0 32.9 31.7 57.3 151.4 161.3 560.2
06 19:10 29.8 50 15 18.5 9 11 1013.1 0 32.1 31.1 55.7 147.1 156.1 542.1
06 19:00 30.1 49 14.94 18.2 6 11 1010.5 0 32.0 30.8 55.1 145.6 154.4 536.4
06 18:50 30.3 46 14.18 17.7 6 9 1013.1 0 30.4 29.6 52.2 137.7 144.7 502.3
06 18:40 30.7 42 13.23 16.6 4 6 1013.1 0 28.4 28.0 48.3 127.5 132.2 458.8
06 18:30 31.1 39 12.55 15.5 7 13 1010.2 0 26.9 26.8 45.5 119.9 123.1 427.0
06 18:20 31.3 37 12.04 15.2 6 7 1013.1 0 25.9 26.1 43.7 115.1 117.1 406.0
06 18:10 31.6 36 11.9 15.1 7 11 1013.1 0 25.6 25.8 43.0 113.3 115.0 398.8
06 18:00 31.9 34 11.42 14.1 7 11 1009.9 0 24.6 24.9 41.1 108.1 108.8 377.2
06 17:50 32.2 33 11.26 14.3 7 9 1013.1 0 24.2 24.7 40.5 106.6 106.9 370.4
06 17:40 33.1 32 11.46 14.2 11 15 1013.1 0 24.6 24.8 40.7 107.3 107.9 374.2
06 17:30 33.7 30 11.09 14.2 4 9 1009.7 0 23.8 24.0 39.1 102.8 102.8 356.2
06 17:20 33.6 31 11.39 14.6 4 6 1013.1 0 24.4 24.5 40.3 106.0 106.5 369.2
06 17:10 33.3 31 11.22 14.3 6 7 1013.1 0 24.1 24.4 39.8 104.8 105.0 363.9
06 17:00 34 32 12.01 15 4 6 1009.6 0 25.7 25.2 42.0 110.7 112.6 390.5
06 16:50 33.8 31 11.52 14.3 6 9 1013.1 0 24.6 24.7 40.6 106.9 107.7 373.3
06 16:40 33.1 32 11.46 14.6 4 4 1013.1 0 24.6 24.8 40.7 107.3 107.9 374.2
06 16:30 32.9 33 11.69 14.5 7 11 1009.5 0 25.1 25.0 41.5 109.3 110.5 383.1
06 16:20 33.8 32 11.89 14.8 11 13 1013.1 0 25.4 25.2 41.8 110.2 111.8 387.8
06 16:10 33.2 33 11.88 15.2 7 9 1013.1 0 25.4 25.3 42.1 111.0 112.5 390.2
06 16:00 32.9 35 12.4 15.4 7 13 1009.6 0 26.5 26.0 43.9 115.8 118.6 411.4
06 15:50 33.4 34 12.37 15.8 2 6 1013.1 0 26.4 26.0 43.7 115.2 117.8 408.8
06 15:40 32.7 34 11.92 15.2 6 7 1013.1 0 25.5 25.5 42.5 112.0 113.7 394.2
06 15:30 32.7 34 11.92 15.2 9 20 1009.8 0 25.5 25.4 42.4 111.7 113.4 393.2
06 15:20 33.3 34 12.3 15.7 6 7 1013.1 0 26.3 25.9 43.5 114.7 117.2 406.5
06 15:10 32.6 35 12.2 15.5 13 15 1013.1 0 26.1 25.9 43.5 114.8 117.0 406.0
06 15:00 32.5 36 12.48 15.9 9 15 1010.1 0 26.7 26.3 44.5 117.2 120.1 416.8
06 14:50 32.4 39 13.45 17 11 15 1013.1 0 28.7 27.8 48.1 127.0 132.0 458.4
06 14:40 31.5 40 13.15 16.6 9 11 1013.1 0 28.1 27.7 47.6 125.5 129.9 450.9

Last Refresh: 07-Aug-2020 07:27:10

Most of the information presented on this site is sourced from the Bureau of Meteorology.  Copyright in all material sourced from the Bureau of Meteorology resides with the Commonwealth of Australia.